Time;durP1;ratioP1;P1;durP2;ratioP2;P2;SDS_P1;SDS_P2;PMS_P1;PMS_P2;Temp;Humidity;BMP_temperature;BMP_pressure;BME280_temperature;BME280_humidity;BME280_pressure;Samples;Min_cycle;Max_cycle;Signal;HPM_P1;HPM_P2
2021/12/07 00:02:17;;;;;;;1.80;1.80;;;16.80;66.20;;;;;;5065479;28;45329;-77
2021/12/07 00:04:45;;;;;;;1.90;1.90;;;17.00;65.80;;;;;;5067209;28;43969;-77
2021/12/07 00:07:13;;;;;;;1.93;1.93;;;17.00;65.40;;;;;;5050376;28;43427;-77
2021/12/07 00:09:44;;;;;;;1.83;1.83;;;17.00;65.30;;;;;;5043153;28;43596;-77
2021/12/07 00:12:12;;;;;;;1.87;1.80;;;17.00;65.40;;;;;;5037461;28;44114;-77
2021/12/07 00:14:44;;;;;;;1.83;1.80;;;16.90;65.60;;;;;;5038518;28;44059;-78
2021/12/07 00:17:14;;;;;;;1.90;1.90;;;16.90;65.90;;;;;;5025916;28;44070;-77
2021/12/07 00:19:42;;;;;;;1.90;1.90;;;16.80;66.00;;;;;;5026958;28;44136;-78
2021/12/07 00:22:11;;;;;;;1.83;1.83;;;16.70;66.10;;;;;;5026039;28;45740;-78
2021/12/07 00:24:40;;;;;;;1.90;1.80;;;16.70;66.30;;;;;;5025789;28;44275;-78
2021/12/07 00:27:08;;;;;;;1.70;1.70;;;16.70;66.40;;;;;;5025852;28;44020;-78
2021/12/07 00:29:36;;;;;;;2.00;2.00;;;16.60;66.50;;;;;;5027509;28;43923;-78
2021/12/07 00:32:18;;;;;;;1.43;1.43;;;16.60;66.60;;;;;;5027728;28;43628;-77
2021/12/07 00:35:01;;;;;;;1.70;1.70;;;16.60;66.80;;;;;;5025754;28;43936;-78
2021/12/07 00:37:30;;;;;;;1.60;1.60;;;16.60;66.80;;;;;;5027150;28;43965;-78
2021/12/07 00:39:58;;;;;;;1.60;1.60;;;16.70;66.40;;;;;;5033412;28;44088;-78
2021/12/07 00:42:26;;;;;;;1.70;1.70;;;16.70;66.20;;;;;;5025754;28;46325;-78
2021/12/07 00:44:54;;;;;;;1.40;1.40;;;16.70;66.20;;;;;;5044803;28;45325;-78
2021/12/07 00:47:24;;;;;;;1.70;1.70;;;16.70;66.30;;;;;;5028865;28;43470;-78
2021/12/07 00:49:52;;;;;;;1.57;1.57;;;16.70;66.40;;;;;;5036900;28;43944;-77
2021/12/07 00:52:20;;;;;;;1.50;1.50;;;16.60;66.40;;;;;;5042780;28;46323;-78
2021/12/07 00:54:48;;;;;;;1.60;1.60;;;16.60;66.60;;;;;;5048080;28;44013;-78
2021/12/07 00:57:16;;;;;;;1.67;1.67;;;16.60;66.70;;;;;;5035628;28;43892;-78
2021/12/07 00:59:45;;;;;;;1.40;1.40;;;16.60;66.80;;;;;;5029676;28;43936;-78
2021/12/07 01:02:13;;;;;;;1.60;1.60;;;16.50;66.90;;;;;;5049502;28;44696;-78
2021/12/07 01:04:51;;;;;;;1.70;1.70;;;16.50;66.90;;;;;;5029413;28;43899;-78
2021/12/07 01:07:38;;;;;;;1.60;1.60;;;16.50;66.90;;;;;;5028446;28;44144;-78
2021/12/07 01:26:41;;;;;;;1.30;1.30;;;17.00;65.70;;;;;;5042616;28;44078;-77
2021/12/07 01:29:10;;;;;;;1.60;1.60;;;17.00;65.40;;;;;;5027952;28;43410;-77
2021/12/07 01:31:49;;;;;;;1.30;1.30;;;17.00;65.30;;;;;;5029670;28;43987;-77
2021/12/07 01:34:40;;;;;;;1.50;1.50;;;16.90;65.50;;;;;;5028967;28;43898;-77
2021/12/07 01:37:28;;;;;;;1.60;1.60;;;16.90;65.80;;;;;;5029038;28;44167;-77
2021/12/07 01:40:22;;;;;;;1.50;1.50;;;16.80;66.10;;;;;;5028883;28;43860;-77
2021/12/07 01:45:59;;;;;;;1.20;1.20;;;16.70;66.40;;;;;;5018028;28;43957;-77
2021/12/07 01:51:32;;;;;;;1.47;1.47;;;16.60;66.70;;;;;;5027841;28;43456;-77
2021/12/07 01:59:33;;;;;;;1.30;1.30;;;16.60;66.80;;;;;;5027433;28;45208;-78
2021/12/07 02:02:02;;;;;;;1.20;1.20;;;16.70;66.40;;;;;;5027989;28;43986;-75
2021/12/07 02:04:30;;;;;;;1.37;1.37;;;16.70;66.20;;;;;;5028089;28;43984;-77
2021/12/07 02:06:59;;;;;;;1.13;1.13;;;16.70;66.30;;;;;;5027454;28;43951;-75
2021/12/07 02:09:29;;;;;;;1.20;1.20;;;16.70;66.40;;;;;;5028787;28;43956;-74
2021/12/07 02:12:02;;;;;;;1.30;1.30;;;16.60;66.40;;;;;;5027295;28;43791;-75
2021/12/07 02:14:30;;;;;;;1.33;1.33;;;16.60;66.60;;;;;;5047392;28;43944;-75
2021/12/07 02:16:59;;;;;;;1.40;1.30;;;16.60;66.70;;;;;;5047590;28;43937;-76
2021/12/07 02:19:28;;;;;;;1.20;1.20;;;16.60;66.80;;;;;;5027087;28;44066;-74
2021/12/07 02:21:58;;;;;;;1.30;1.30;;;16.50;66.80;;;;;;5028860;28;44059;-75
2021/12/07 02:24:32;;;;;;;1.00;1.00;;;16.50;66.90;;;;;;5041002;28;43919;-76
2021/12/07 02:27:01;;;;;;;1.07;1.07;;;16.50;66.90;;;;;;5027637;28;45000;-76
2021/12/07 02:29:29;;;;;;;1.20;1.20;;;16.50;67.00;;;;;;5026825;28;44525;-76
2021/12/07 02:31:58;;;;;;;1.10;1.10;;;16.50;67.10;;;;;;5027461;28;44031;-76
2021/12/07 02:34:26;;;;;;;1.40;1.40;;;16.50;67.10;;;;;;5027662;28;44213;-76
2021/12/07 02:36:59;;;;;;;1.27;1.27;;;16.50;67.20;;;;;;5027153;28;44135;-75
2021/12/07 02:39:30;;;;;;;1.20;1.20;;;16.60;67.10;;;;;;5026899;28;44046;-76
2021/12/07 02:42:00;;;;;;;1.10;1.10;;;16.70;66.80;;;;;;5026949;28;43953;-75
2021/12/07 02:44:28;;;;;;;1.20;1.20;;;16.80;66.30;;;;;;5027221;28;43440;-75
2021/12/07 02:46:56;;;;;;;1.30;1.27;;;16.90;65.90;;;;;;5026953;28;45413;-75
2021/12/07 02:49:25;;;;;;;1.10;1.10;;;17.00;65.70;;;;;;5027118;28;44331;-75
2021/12/07 02:51:54;;;;;;;1.07;1.07;;;16.90;65.60;;;;;;5027610;28;44107;-75
2021/12/07 02:54:24;;;;;;;1.30;1.30;;;16.90;65.90;;;;;;5027893;28;43571;-75
2021/12/07 02:56:53;;;;;;;1.20;1.20;;;16.80;66.00;;;;;;5028208;28;43932;-75
2021/12/07 02:59:22;;;;;;;1.13;1.13;;;16.70;66.20;;;;;;5026846;28;45363;-75
2021/12/07 03:01:58;;;;;;;1.00;1.00;;;16.70;66.40;;;;;;5026552;28;43971;-75
2021/12/07 03:04:33;;;;;;;1.10;1.10;;;16.60;66.50;;;;;;5038129;28;43413;-75
2021/12/07 03:07:09;;;;;;;1.10;1.10;;;16.60;66.60;;;;;;5045927;28;44003;-76
2021/12/07 03:10:03;;;;;;;1.10;1.10;;;16.60;66.80;;;;;;5025871;28;44550;-76
2021/12/07 03:26:24;;;;;;;1.17;1.17;;;16.80;66.30;;;;;;5030862;28;43489;-76
2021/12/07 03:28:54;;;;;;;1.00;1.00;;;16.80;66.00;;;;;;5026339;28;44088;-76
2021/12/07 03:31:26;;;;;;;1.00;1.00;;;16.80;66.00;;;;;;5026178;28;43988;-76
2021/12/07 03:33:55;;;;;;;1.00;1.00;;;16.80;66.20;;;;;;5026423;28;43405;-75
2021/12/07 03:36:27;;;;;;;1.17;1.17;;;16.70;66.40;;;;;;5028471;28;44043;-74
2021/12/07 03:38:58;;;;;;;1.20;1.20;;;16.60;66.50;;;;;;5025725;28;45808;-75
2021/12/07 03:41:27;;;;;;;1.07;1.07;;;16.60;66.90;;;;;;5026122;28;43350;-75
2021/12/07 03:43:56;;;;;;;1.10;1.10;;;16.50;66.80;;;;;;5027442;28;44022;-76
2021/12/07 03:46:24;;;;;;;1.00;1.00;;;16.50;66.90;;;;;;5027762;28;44283;-75
2021/12/07 03:48:53;;;;;;;1.10;1.10;;;16.50;67.00;;;;;;5026077;28;44047;-75
2021/12/07 03:51:21;;;;;;;0.90;0.90;;;16.50;67.10;;;;;;5025614;28;44615;-75
2021/12/07 03:53:49;;;;;;;0.90;0.90;;;16.50;67.10;;;;;;5025848;28;43850;-75
2021/12/07 03:56:18;;;;;;;1.00;1.00;;;16.50;67.20;;;;;;5026293;28;44279;-76
2021/12/07 03:58:47;;;;;;;1.07;1.00;;;16.50;67.30;;;;;;5026769;28;44756;-75
2021/12/07 04:01:15;;;;;;;1.00;1.00;;;16.50;67.10;;;;;;5025591;28;44726;-76
2021/12/07 04:03:46;;;;;;;0.93;0.90;;;16.60;66.70;;;;;;5031325;28;43953;-76
2021/12/07 04:06:18;;;;;;;0.90;0.90;;;16.60;66.50;;;;;;5045761;28;43996;-76
2021/12/07 04:08:46;;;;;;;1.10;1.10;;;16.60;66.50;;;;;;5044942;28;45596;-76
2021/12/07 04:11:16;;;;;;;0.90;0.90;;;16.60;66.60;;;;;;5044886;28;45794;-76
2021/12/07 04:13:45;;;;;;;1.07;1.07;;;16.60;66.70;;;;;;5046375;28;43880;-75
2021/12/07 04:16:18;;;;;;;1.00;1.00;;;16.60;66.80;;;;;;5026098;28;44123;-75
2021/12/07 04:18:50;;;;;;;1.10;1.10;;;16.60;66.90;;;;;;5045116;28;45022;-76
2021/12/07 04:21:18;;;;;;;1.00;1.00;;;16.50;66.90;;;;;;5044529;28;43989;-75
2021/12/07 04:23:46;;;;;;;0.90;0.90;;;16.50;66.90;;;;;;5047328;28;44003;-75
2021/12/07 04:26:15;;;;;;;1.00;1.00;;;16.50;67.00;;;;;;5049958;28;43868;-77
2021/12/07 04:28:43;;;;;;;1.20;1.20;;;16.50;67.00;;;;;;5047701;28;46520;-76
2021/12/07 04:31:12;;;;;;;1.20;1.20;;;16.50;67.10;;;;;;5040299;28;45608;-76
2021/12/07 04:33:41;;;;;;;1.20;1.20;;;16.50;67.10;;;;;;5031504;28;43973;-76
2021/12/07 04:36:10;;;;;;;1.00;1.00;;;16.50;67.20;;;;;;5050577;28;43985;-77
2021/12/07 04:38:38;;;;;;;0.93;0.93;;;16.40;67.20;;;;;;5049447;28;43940;-77
2021/12/07 04:41:07;;;;;;;1.10;1.10;;;16.50;67.20;;;;;;5047825;28;45596;-76
2021/12/07 04:43:36;;;;;;;1.07;1.03;;;16.60;66.90;;;;;;5050707;28;43466;-79
2021/12/07 04:46:11;;;;;;;0.90;0.90;;;16.80;66.50;;;;;;5049760;28;44023;-76
2021/12/07 04:59:49;;;;;;;1.70;1.60;;;16.80;66.00;;;;;;5030033;28;44131;-75
2021/12/07 05:02:18;;;;;;;1.40;1.40;;;16.70;66.10;;;;;;5043086;28;43368;-75
2021/12/07 05:04:48;;;;;;;1.70;1.70;;;16.60;66.30;;;;;;5041388;28;44039;-74
2021/12/07 05:07:23;;;;;;;2.87;1.93;;;16.60;66.60;;;;;;5029851;28;43965;-74
2021/12/07 05:10:14;;;;;;;2.60;2.17;;;16.60;66.70;;;;;;5036198;28;43860;-75
2021/12/07 05:12:57;;;;;;;2.00;1.73;;;16.50;66.80;;;;;;5047588;28;43422;-75
2021/12/07 05:15:31;;;;;;;1.60;1.50;;;16.50;66.90;;;;;;5030716;28;44008;-84
2021/12/07 05:18:06;;;;;;;1.73;1.63;;;16.50;67.10;;;;;;5030855;28;43870;-75
2021/12/07 05:34:41;;;;;;;2.47;1.90;;;16.60;66.80;;;;;;5029451;28;44354;-76
2021/12/07 05:40:02;;;;;;;2.13;1.90;;;16.50;67.00;;;;;;5023373;28;43986;-76
2021/12/07 05:42:29;;;;;;;2.30;2.10;;;16.50;67.10;;;;;;5028771;28;44942;-76
2021/12/07 05:44:57;;;;;;;2.37;1.83;;;16.40;67.20;;;;;;5029295;28;44270;-75
2021/12/07 05:47:25;;;;;;;1.90;1.80;;;16.40;67.00;;;;;;5029433;28;43762;-76
2021/12/07 05:49:53;;;;;;;2.43;2.23;;;16.40;67.20;;;;;;5029309;28;43991;-76
2021/12/07 05:52:23;;;;;;;1.83;1.70;;;16.40;67.20;;;;;;5035430;28;44774;-76
2021/12/07 05:54:51;;;;;;;2.03;1.93;;;16.40;67.30;;;;;;5048425;28;44014;-76
2021/12/07 05:57:20;;;;;;;2.47;2.27;;;16.40;67.30;;;;;;5028739;28;43950;-76
2021/12/07 05:59:48;;;;;;;3.33;2.27;;;16.40;67.50;;;;;;5029191;28;43844;-76
2021/12/07 06:02:16;;;;;;;2.27;1.93;;;16.50;67.30;;;;;;5039981;28;43969;-76
2021/12/07 06:04:44;;;;;;;1.83;1.73;;;16.60;67.00;;;;;;5046938;28;44388;-76
2021/12/07 06:07:12;;;;;;;3.17;2.13;;;16.70;66.50;;;;;;5033898;28;43430;-76
2021/12/07 06:09:42;;;;;;;1.60;1.50;;;16.90;66.20;;;;;;5027302;28;44004;-76
2021/12/07 06:12:10;;;;;;;2.30;2.20;;;16.90;65.80;;;;;;5028326;28;44963;-76
2021/12/07 06:14:42;;;;;;;1.90;1.80;;;16.90;65.90;;;;;;5042092;28;43860;-76
2021/12/07 06:17:11;;;;;;;1.90;1.80;;;16.80;65.90;;;;;;5047406;28;44106;-76
2021/12/07 06:19:39;;;;;;;2.17;2.07;;;16.80;66.20;;;;;;5048289;28;43928;-76
2021/12/07 06:22:08;;;;;;;1.80;1.70;;;16.70;66.30;;;;;;5047584;28;44014;-76
2021/12/07 06:24:36;;;;;;;2.20;1.80;;;16.60;66.40;;;;;;5046371;28;43916;-76
2021/12/07 06:27:06;;;;;;;2.37;2.00;;;16.60;66.60;;;;;;5046247;28;44067;-76
2021/12/07 06:29:34;;;;;;;2.07;1.97;;;16.60;66.80;;;;;;5048185;28;44005;-76
2021/12/07 06:32:03;;;;;;;1.73;1.63;;;16.50;66.80;;;;;;5047415;28;43839;-76
2021/12/07 06:34:31;;;;;;;2.40;2.20;;;16.50;66.90;;;;;;5046652;28;44744;-76
2021/12/07 06:37:00;;;;;;;1.83;1.73;;;16.50;67.00;;;;;;5046172;28;43980;-76
2021/12/07 06:39:28;;;;;;;2.00;1.87;;;16.50;67.20;;;;;;5048029;28;43836;-75
2021/12/07 06:41:56;;;;;;;2.27;2.10;;;16.60;67.20;;;;;;5047267;28;43973;-76
2021/12/07 06:44:25;;;;;;;2.17;1.97;;;16.70;66.80;;;;;;5045799;28;44679;-75
2021/12/07 06:46:53;;;;;;;2.10;2.00;;;16.80;66.30;;;;;;5046447;28;43942;-75
2021/12/07 06:49:21;;;;;;;2.17;2.07;;;16.80;65.90;;;;;;5046056;28;43957;-75
2021/12/07 06:51:49;;;;;;;2.03;1.93;;;16.80;65.90;;;;;;5046729;28;44023;-75
2021/12/07 06:54:17;;;;;;;2.00;1.90;;;16.80;66.00;;;;;;5047075;28;44201;-75
2021/12/07 06:56:45;;;;;;;1.80;1.70;;;16.70;66.10;;;;;;5047095;28;43379;-75
2021/12/07 06:59:13;;;;;;;1.83;1.73;;;16.70;66.30;;;;;;5045947;28;44048;-76
2021/12/07 07:01:42;;;;;;;1.80;1.70;;;16.60;66.40;;;;;;5046503;28;44869;-75
2021/12/07 07:04:12;;;;;;;2.10;2.00;;;16.60;67.40;;;;;;5045161;28;44592;-75
2021/12/07 07:06:40;;;;;;;2.00;1.90;;;16.60;66.80;;;;;;5045488;28;43493;-74
2021/12/07 07:09:08;;;;;;;2.23;2.03;;;16.50;66.80;;;;;;5045484;28;43823;-75
2021/12/07 07:11:36;;;;;;;2.40;2.00;;;16.50;66.90;;;;;;5046359;28;43933;-75
2021/12/07 07:14:04;;;;;;;2.10;2.00;;;16.50;66.90;;;;;;5046584;28;43947;-75
2021/12/07 07:16:32;;;;;;;1.90;1.80;;;16.50;67.00;;;;;;5046586;28;44118;-74
2021/12/07 07:19:01;;;;;;;2.03;1.93;;;16.50;67.10;;;;;;5045523;28;43754;-75
2021/12/07 07:21:30;;;;;;;2.00;1.90;;;16.50;67.20;;;;;;5045009;28;45669;-75
2021/12/07 07:23:58;;;;;;;2.23;2.13;;;16.60;67.10;;;;;;5046753;28;43437;-75
2021/12/07 07:26:26;;;;;;;1.90;1.80;;;16.70;66.70;;;;;;5046806;28;43874;-75
2021/12/07 07:28:53;;;;;;;1.83;1.73;;;16.80;66.30;;;;;;5046917;28;44006;-74
2021/12/07 07:31:22;;;;;;;1.70;1.60;;;16.80;66.10;;;;;;5044896;28;47025;-74
2021/12/07 07:33:51;;;;;;;1.70;1.70;;;16.80;66.10;;;;;;5044407;28;44456;-75
2021/12/07 07:36:20;;;;;;;2.30;2.20;;;16.70;66.30;;;;;;5045052;28;43470;-74
2021/12/07 07:38:48;;;;;;;1.53;1.53;;;16.70;66.40;;;;;;5045931;28;44166;-74
2021/12/07 07:41:18;;;;;;;2.03;1.93;;;16.60;66.50;;;;;;5044678;28;44083;-75
2021/12/07 07:43:46;;;;;;;2.00;1.90;;;16.60;66.70;;;;;;5045953;28;43424;-76
2021/12/07 07:46:17;;;;;;;1.97;1.87;;;16.60;66.90;;;;;;5044730;28;43892;-74
2021/12/07 07:48:47;;;;;;;2.10;2.00;;;16.50;66.90;;;;;;5043185;28;44213;-75
2021/12/07 07:51:15;;;;;;;2.23;2.10;;;16.50;67.00;;;;;;5026756;28;43995;-75
2021/12/07 07:53:45;;;;;;;1.87;1.77;;;16.50;67.10;;;;;;5025338;28;45192;-75
2021/12/07 07:56:13;;;;;;;1.77;1.77;;;16.50;67.20;;;;;;5026837;28;43865;-75
2021/12/07 07:58:41;;;;;;;1.80;1.80;;;16.40;67.10;;;;;;5027539;28;43824;-74
2021/12/07 08:01:09;;;;;;;2.03;1.90;;;16.40;67.30;;;;;;5043691;28;44133;-76
2021/12/07 08:03:38;;;;;;;2.20;2.10;;;16.40;67.30;;;;;;5044354;28;46068;-75
2021/12/07 08:06:05;;;;;;;1.90;1.80;;;16.50;67.10;;;;;;5045980;28;43336;-75
2021/12/07 08:08:33;;;;;;;1.90;1.83;;;16.60;67.40;;;;;;5046264;28;43924;-75
2021/12/07 08:11:04;;;;;;;1.90;1.80;;;16.80;66.40;;;;;;5044423;28;45688;-74
2021/12/07 08:13:32;;;;;;;1.97;1.87;;;16.80;66.00;;;;;;5044294;28;44607;-74
2021/12/07 08:16:00;;;;;;;2.10;2.00;;;16.80;65.90;;;;;;5045918;28;44007;-75
2021/12/07 08:18:28;;;;;;;1.60;1.60;;;16.80;66.20;;;;;;5046790;28;43554;-75
2021/12/07 08:20:56;;;;;;;2.03;1.93;;;16.70;66.30;;;;;;5045951;28;43899;-75
2021/12/07 08:23:24;;;;;;;1.70;1.70;;;16.60;66.40;;;;;;5044396;28;44686;-74
2021/12/07 08:25:52;;;;;;;2.00;1.90;;;16.60;66.60;;;;;;5044081;28;44110;-75
2021/12/07 08:28:22;;;;;;;1.73;1.70;;;16.60;66.70;;;;;;5044704;28;44653;-75
2021/12/07 08:30:50;;;;;;;1.87;1.77;;;16.50;66.80;;;;;;5044137;28;45754;-75
2021/12/07 08:33:18;;;;;;;1.80;1.70;;;16.50;66.90;;;;;;5044973;28;44104;-75
2021/12/07 08:35:46;;;;;;;1.70;1.70;;;16.50;67.10;;;;;;5045817;28;43980;-75
2021/12/07 08:38:14;;;;;;;1.40;1.40;;;16.50;67.20;;;;;;5045521;28;43972;-75
2021/12/07 08:40:42;;;;;;;2.00;1.90;;;16.40;67.10;;;;;;5045311;28;44029;-74
2021/12/07 08:43:12;;;;;;;2.00;1.90;;;16.40;67.30;;;;;;5045679;28;43954;-76
2021/12/07 08:45:42;;;;;;;2.10;1.90;;;16.50;67.20;;;;;;5045524;28;43979;-75
2021/12/07 08:48:10;;;;;;;1.80;1.80;;;16.60;66.80;;;;;;5045923;28;43931;-75
2021/12/07 08:50:38;;;;;;;1.90;1.80;;;16.60;66.60;;;;;;5043945;28;46446;-75
2021/12/07 08:53:08;;;;;;;1.50;1.50;;;16.60;66.70;;;;;;5045524;28;44046;-75
2021/12/07 09:01:09;;;;;;;1.90;1.80;;;16.50;66.90;;;;;;5045340;28;44959;-75
2021/12/07 09:03:37;;;;;;;2.13;2.03;;;16.50;67.00;;;;;;5027219;28;45501;-75
2021/12/07 09:06:06;;;;;;;1.60;1.60;;;16.50;67.20;;;;;;5024795;28;43420;-74
2021/12/07 09:08:35;;;;;;;1.70;1.70;;;16.40;67.10;;;;;;5027421;28;43950;-75
2021/12/07 09:11:03;;;;;;;1.57;1.57;;;16.40;67.20;;;;;;5029561;28;44092;-75
2021/12/07 09:13:31;;;;;;;1.90;1.80;;;16.40;67.30;;;;;;5029512;28;43854;-76
2021/12/07 09:16:00;;;;;;;1.60;1.60;;;16.40;67.40;;;;;;5029607;28;43950;-75
2021/12/07 09:18:29;;;;;;;1.60;1.60;;;16.40;67.40;;;;;;5012354;28;43975;-75
2021/12/07 09:20:57;;;;;;;1.73;1.63;;;16.40;67.50;;;;;;5029511;28;43921;-75
2021/12/07 09:23:25;;;;;;;1.67;1.60;;;16.40;67.70;;;;;;5029528;28;43926;-76
2021/12/07 09:25:54;;;;;;;1.50;1.50;;;16.40;67.50;;;;;;5027946;28;43908;-74
2021/12/07 09:28:22;;;;;;;1.87;1.77;;;16.50;67.20;;;;;;5028079;28;44026;-75
2021/12/07 09:30:52;;;;;;;1.70;1.60;;;16.70;66.80;;;;;;5029002;28;44049;-75
2021/12/07 09:33:21;;;;;;;2.00;1.90;;;16.80;66.50;;;;;;5027535;28;44873;-74
2021/12/07 09:35:52;;;;;;;1.90;1.80;;;16.80;66.10;;;;;;5027605;28;44034;-75
2021/12/07 09:38:20;;;;;;;1.60;1.60;;;16.80;65.90;;;;;;5027743;28;44097;-76
2021/12/07 09:40:48;;;;;;;1.60;1.60;;;16.80;66.20;;;;;;5027905;28;45047;-74
2021/12/07 09:43:16;;;;;;;1.87;1.77;;;16.70;66.30;;;;;;5027507;28;44734;-74
2021/12/07 09:45:44;;;;;;;1.47;1.47;;;16.70;66.40;;;;;;5029000;28;43383;-77
2021/12/07 09:48:13;;;;;;;1.90;1.80;;;16.60;66.60;;;;;;5029248;28;44244;-75
2021/12/07 09:50:42;;;;;;;1.50;1.50;;;16.60;66.80;;;;;;5028731;28;43794;-75
2021/12/07 09:53:12;;;;;;;1.83;1.80;;;16.60;66.90;;;;;;5028698;28;44041;-74
2021/12/07 09:55:40;;;;;;;2.10;1.97;;;16.50;66.90;;;;;;5028678;28;43905;-74
2021/12/07 09:58:08;;;;;;;1.90;1.80;;;16.50;67.00;;;;;;5029113;28;43958;-74
2021/12/07 10:00:37;;;;;;;1.80;1.80;;;16.50;67.10;;;;;;5028319;28;44025;-75
2021/12/07 10:03:05;;;;;;;1.80;1.80;;;16.50;67.20;;;;;;5028454;28;43986;-75
2021/12/07 10:05:35;;;;;;;1.47;1.47;;;16.50;67.30;;;;;;5027357;28;43513;-76
2021/12/07 10:08:03;;;;;;;1.60;1.60;;;16.60;67.00;;;;;;5027656;28;43530;-74
2021/12/07 10:10:34;;;;;;;1.90;1.90;;;16.60;67.50;;;;;;5027266;28;45397;-74
2021/12/07 10:13:02;;;;;;;1.20;1.20;;;16.60;66.70;;;;;;5026658;28;44299;-77
2021/12/07 10:15:30;;;;;;;2.03;1.93;;;16.60;66.80;;;;;;5027496;28;43896;-77
2021/12/07 10:18:06;;;;;;;1.60;1.60;;;16.60;67.00;;;;;;5028820;28;43874;-76
2021/12/07 10:20:53;;;;;;;1.97;1.87;;;16.50;67.00;;;;;;5027827;28;43857;-76
2021/12/07 10:23:31;;;;;;;1.77;1.77;;;16.50;67.20;;;;;;5045418;28;44178;-76
2021/12/07 10:26:04;;;;;;;1.37;1.37;;;16.40;67.30;;;;;;5046464;28;43889;-76
2021/12/07 10:28:35;;;;;;;1.50;1.50;;;16.40;67.30;;;;;;5048167;28;43477;-76
2021/12/07 10:31:27;;;;;;;1.93;1.83;;;16.40;67.50;;;;;;5045886;28;45485;-75
2021/12/07 10:33:58;;;;;;;1.60;1.60;;;16.30;67.50;;;;;;5046056;28;45413;-74
2021/12/07 10:36:27;;;;;;;1.50;1.50;;;16.30;67.50;;;;;;5046303;28;43926;-75
2021/12/07 10:38:58;;;;;;;1.80;1.80;;;16.30;67.60;;;;;;5047315;28;43578;-75
2021/12/07 10:41:27;;;;;;;1.50;1.50;;;16.30;67.70;;;;;;5047793;28;43973;-75
2021/12/07 10:44:01;;;;;;;1.50;1.50;;;16.30;67.80;;;;;;5046993;28;43930;-75
2021/12/07 10:46:33;;;;;;;1.93;1.83;;;16.40;67.80;;;;;;5046243;28;43878;-75
2021/12/07 10:49:16;;;;;;;1.80;1.80;;;16.50;67.50;;;;;;5047824;28;44125;-75
2021/12/07 10:52:12;;;;;;;1.40;1.40;;;16.60;67.00;;;;;;5047224;28;44044;-75
2021/12/07 10:54:44;;;;;;;1.70;1.60;;;16.70;66.40;;;;;;5047213;28;44070;-75
2021/12/07 10:57:14;;;;;;;1.77;1.70;;;16.80;66.20;;;;;;5045993;28;44122;-75
2021/12/07 10:59:51;;;;;;;1.70;1.60;;;16.80;66.10;;;;;;5047612;28;43793;-75
2021/12/07 11:02:19;;;;;;;1.70;1.67;;;16.80;66.30;;;;;;5047202;28;43915;-74
2021/12/07 11:04:48;;;;;;;1.80;1.70;;;16.70;66.30;;;;;;5047278;28;44130;-75
2021/12/07 11:07:18;;;;;;;1.37;1.37;;;16.70;66.40;;;;;;5047299;28;43449;-74
2021/12/07 11:10:04;;;;;;;1.90;1.80;;;16.60;66.50;;;;;;5028475;28;44048;-77
2021/12/07 11:12:40;;;;;;;1.70;1.60;;;16.50;66.60;;;;;;5027980;28;44054;-75
2021/12/07 11:15:15;;;;;;;1.70;1.60;;;16.50;66.70;;;;;;5029721;28;44030;-75
2021/12/07 11:17:43;;;;;;;1.63;1.60;;;16.50;66.90;;;;;;5046858;28;43935;-75
2021/12/07 11:20:16;;;;;;;2.20;1.80;;;16.40;67.00;;;;;;5047342;28;43923;-75
2021/12/07 11:22:46;;;;;;;1.60;1.60;;;16.40;67.00;;;;;;5046302;28;45090;-75
2021/12/07 11:25:31;;;;;;;2.20;1.80;;;16.40;67.30;;;;;;5046841;28;43892;-76
2021/12/07 11:30:47;;;;;;;2.87;1.53;;;16.60;67.00;;;;;;5045557;28;43874;-75
2021/12/07 11:33:23;;;;;;;1.60;1.50;;;16.70;66.50;;;;;;5045136;28;46161;-75
2021/12/07 11:35:51;;;;;;;1.77;1.63;;;16.70;66.30;;;;;;5046484;28;43459;-75
2021/12/07 11:38:19;;;;;;;2.37;1.70;;;16.70;66.30;;;;;;5046048;28;43947;-75
2021/12/07 11:40:47;;;;;;;1.90;1.80;;;16.70;66.60;;;;;;5040810;28;44027;-75
2021/12/07 11:43:17;;;;;;;1.90;1.80;;;16.60;66.70;;;;;;5027252;28;43973;-75
2021/12/07 11:45:46;;;;;;;1.50;1.50;;;16.50;66.80;;;;;;5026112;28;43916;-74
2021/12/07 11:48:16;;;;;;;1.80;1.70;;;16.50;67.00;;;;;;5027362;28;43948;-75
2021/12/07 11:50:46;;;;;;;1.60;1.50;;;16.50;67.20;;;;;;5027644;28;44169;-75
2021/12/07 11:53:16;;;;;;;1.40;1.40;;;16.40;67.20;;;;;;5026962;28;44368;-75
2021/12/07 11:55:47;;;;;;;1.47;1.40;;;16.40;67.40;;;;;;5027671;28;43837;-82
2021/12/07 11:58:16;;;;;;;1.90;1.80;;;16.40;67.50;;;;;;5045282;28;44314;-74
2021/12/07 12:00:46;;;;;;;1.53;1.53;;;16.30;67.50;;;;;;5027370;28;44035;-74
2021/12/07 12:03:15;;;;;;;1.70;1.70;;;16.30;67.50;;;;;;5026706;28;43917;-76
2021/12/07 12:05:44;;;;;;;1.77;1.70;;;16.30;67.90;;;;;;5038850;28;44710;-75
2021/12/07 12:08:14;;;;;;;1.40;1.40;;;16.40;68.60;;;;;;5025893;28;44052;-75
2021/12/07 12:10:44;;;;;;;1.50;1.50;;;16.50;67.60;;;;;;5027059;28;44010;-75
2021/12/07 12:13:15;;;;;;;1.83;1.73;;;16.50;67.30;;;;;;5026857;28;44044;-75
2021/12/07 12:15:53;;;;;;;1.40;1.40;;;16.50;67.30;;;;;;5027011;28;43928;-75
2021/12/07 12:18:28;;;;;;;1.60;1.60;;;16.50;67.50;;;;;;5027016;28;43954;-75
2021/12/07 12:21:00;;;;;;;1.90;1.80;;;16.50;67.70;;;;;;5027416;28;44004;-76
2021/12/07 12:23:35;;;;;;;1.90;1.80;;;16.50;67.80;;;;;;5026990;28;43952;-76
2021/12/07 12:26:04;;;;;;;1.50;1.50;;;16.40;67.90;;;;;;5025023;28;44740;-76
2021/12/07 12:28:36;;;;;;;1.60;1.60;;;16.40;67.90;;;;;;5026396;28;43395;-76
2021/12/07 12:31:08;;;;;;;1.60;1.50;;;16.40;68.00;;;;;;5027058;28;43814;-75
2021/12/07 12:33:53;;;;;;;1.70;1.60;;;16.40;68.00;;;;;;5026824;28;44615;-75
2021/12/07 12:36:21;;;;;;;1.30;1.30;;;16.40;68.20;;;;;;5024983;28;45335;-76
2021/12/07 12:38:57;;;;;;;2.17;1.90;;;16.30;68.10;;;;;;5032770;28;43401;-75
2021/12/07 12:41:25;;;;;;;1.50;1.50;;;16.40;68.30;;;;;;5025386;28;43959;-75
2021/12/07 12:43:54;;;;;;;2.00;1.90;;;16.30;68.20;;;;;;5027774;28;43920;-76
2021/12/07 12:46:26;;;;;;;1.70;1.60;;;16.30;68.30;;;;;;5029689;28;44038;-74
2021/12/07 12:48:56;;;;;;;1.60;1.50;;;16.40;68.40;;;;;;5028926;28;43911;-75
2021/12/07 12:51:25;;;;;;;1.70;1.60;;;16.50;68.20;;;;;;5029972;28;43985;-74
2021/12/07 12:53:53;;;;;;;1.63;1.60;;;16.60;67.70;;;;;;5029737;28;43976;-76
2021/12/07 12:56:23;;;;;;;1.47;1.47;;;16.80;67.30;;;;;;5029537;28;44398;-74
2021/12/07 12:58:52;;;;;;;1.87;1.80;;;16.90;67.00;;;;;;5029866;28;43968;-75
2021/12/07 13:01:23;;;;;;;1.70;1.70;;;16.80;66.80;;;;;;5028640;28;44119;-75
2021/12/07 13:04:09;;;;;;;1.70;1.60;;;16.80;66.90;;;;;;5028078;28;45845;-75
2021/12/07 13:07:01;;;;;;;2.00;1.90;;;16.70;67.00;;;;;;5027900;28;44582;-75
2021/12/07 13:09:34;;;;;;;1.60;1.60;;;16.70;67.20;;;;;;5028457;28;43994;-75
2021/12/07 13:12:04;;;;;;;1.60;1.60;;;16.60;67.40;;;;;;5030168;28;43999;-74
2021/12/07 13:14:35;;;;;;;1.60;1.60;;;16.60;67.70;;;;;;5029332;28;44983;-74
2021/12/07 13:17:08;;;;;;;1.60;1.50;;;16.50;67.60;;;;;;5029470;28;43459;-74
2021/12/07 13:20:06;;;;;;;1.70;1.70;;;16.50;67.80;;;;;;5035845;28;44157;-74
2021/12/07 13:22:35;;;;;;;1.60;1.60;;;16.40;67.80;;;;;;5047880;28;44007;-74
2021/12/07 13:25:07;;;;;;;1.70;1.70;;;16.40;68.00;;;;;;5048354;28;43958;-74
2021/12/07 13:27:36;;;;;;;1.57;1.53;;;16.40;68.20;;;;;;5047012;28;45149;-75
2021/12/07 13:30:05;;;;;;;1.53;1.53;;;16.50;68.20;;;;;;5048258;28;43900;-75
2021/12/07 13:32:35;;;;;;;1.73;1.67;;;16.60;67.80;;;;;;5048729;28;43989;-74
2021/12/07 13:35:07;;;;;;;1.53;1.53;;;16.70;67.40;;;;;;5048416;28;44612;-74
2021/12/07 13:37:45;;;;;;;1.40;1.40;;;16.70;67.10;;;;;;5046511;28;44006;-75
2021/12/07 13:40:20;;;;;;;1.63;1.63;;;16.70;67.00;;;;;;5029251;28;43420;-75
2021/12/07 13:42:50;;;;;;;1.67;1.67;;;16.60;67.10;;;;;;5029578;28;43872;-75
2021/12/07 13:45:19;;;;;;;1.40;1.40;;;16.60;67.40;;;;;;5028734;28;44057;-74
2021/12/07 13:47:50;;;;;;;1.37;1.37;;;16.60;67.60;;;;;;5029891;28;44011;-74
2021/12/07 13:50:21;;;;;;;1.00;1.00;;;16.50;67.60;;;;;;5048291;28;44045;-74
2021/12/07 13:52:51;;;;;;;1.50;1.50;;;16.50;67.70;;;;;;5047290;28;44238;-75
2021/12/07 13:55:21;;;;;;;1.37;1.37;;;16.50;67.90;;;;;;5046269;28;46044;-75
2021/12/07 13:57:52;;;;;;;1.30;1.30;;;16.40;67.80;;;;;;5050114;28;44011;-75
2021/12/07 14:00:21;;;;;;;1.70;1.60;;;16.40;67.90;;;;;;5048715;28;43915;-75
2021/12/07 14:02:54;;;;;;;1.40;1.30;;;16.40;68.00;;;;;;5035613;28;43812;-75
2021/12/07 14:05:23;;;;;;;1.40;1.40;;;16.40;68.70;;;;;;5027043;28;45148;-75
2021/12/07 14:07:52;;;;;;;1.73;1.63;;;16.40;68.20;;;;;;5028490;28;43912;-75
2021/12/07 14:10:21;;;;;;;1.40;1.40;;;16.50;68.10;;;;;;5027060;28;44107;-75
2021/12/07 14:12:50;;;;;;;1.30;1.30;;;16.60;67.80;;;;;;5038120;28;44333;-75
2021/12/07 14:15:20;;;;;;;1.30;1.30;;;16.70;67.30;;;;;;5030506;28;44103;-75
2021/12/07 14:17:51;;;;;;;1.10;1.10;;;16.80;66.90;;;;;;5027162;28;44645;-74
2021/12/07 14:20:30;;;;;;;1.60;1.50;;;16.80;66.70;;;;;;5026920;28;43408;-74
2021/12/07 14:22:59;;;;;;;1.30;1.30;;;16.80;66.80;;;;;;5029264;28;43939;-75
2021/12/07 14:25:27;;;;;;;1.20;1.20;;;16.70;67.70;;;;;;5028640;28;44039;-74